WetterOnline ( http://www.wetteronline.de )

Wetter aktuell Alfeld

Aktuelles Wetter: Alfeld (148m)

6-stündlich | Neueste Meldungen
Ortszeit Temperatur Wetter
Di, 20.02. 7:00 -2.8° C bedeckt
Di, 20.02. 1:00 -1.4° C wolkig
Mo, 19.02. 19:00 -0.1° C bewölkt
Mo, 19.02. 13:00 2.1° C bewölkt
Mo, 19.02. 7:00 -1.1° C bedeckt
Mo, 19.02. 1:00 -0.4° C bedeckt
So, 18.02. 19:00 0.9° C bedeckt
So, 18.02. 13:00 3.8° C wolkenlos
Ortszeit Temperatur Wetter
Di, 20.02. 8:30 -3.2° C fast wolkenlos
Di, 20.02. 8:20 -3.2° C fast wolkenlos
Di, 20.02. 8:10 -3.1° C leicht bewölkt
Di, 20.02. 8:00 -3.0° C bedeckt
Di, 20.02. 7:50 -3.0° C bedeckt
Di, 20.02. 7:40 -3.1° C leicht bewölkt
Di, 20.02. 7:30 -2.9° C bewölkt
Di, 20.02. 7:00 -2.8° C bedeckt
Di, 20.02. 6:30 -2.4° C bedeckt
Di, 20.02. 6:00 -1.8° C bedeckt
Di, 20.02. 5:30 -1.9° C bedeckt
Ortszeit Relative Feuchte Sichtweite
Di, 20.02. 7:00 96% 2.8 km
Di, 20.02. 1:00 94% 4.5 km
Mo, 19.02. 19:00 84% 9 km
Mo, 19.02. 13:00 72% 9 km
Mo, 19.02. 7:00 88% 6 km
Mo, 19.02. 1:00 83% 10 km
So, 18.02. 19:00 79% 18 km
So, 18.02. 13:00 62% 15 km
Ortszeit Relative Feuchte Sichtweite
Di, 20.02. 8:30 96% 2.4 km
Di, 20.02. 8:20 96% -
Di, 20.02. 8:10 98% -
Di, 20.02. 8:00 97% 2.2 km
Di, 20.02. 7:50 97% -
Di, 20.02. 7:40 98% -
Di, 20.02. 7:30 96% 2.1 km
Di, 20.02. 7:00 96% 2.8 km
Di, 20.02. 6:30 95% 3.0 km
Di, 20.02. 6:00 94% 3.8 km
Di, 20.02. 5:30 95% 4.2 km
Ortszeit Niederschlagsmenge Niederschlagsart
Di, 20.02. 7:00 0.0 l/m2 in 12 Std. -
Di, 20.02. 1:00 0.0 l/m2 in 6 Std. -
Mo, 19.02. 19:00 0.0 l/m2 in 12 Std. -
Mo, 19.02. 13:00 0.0 l/m2 in 6 Std. -
Mo, 19.02. 7:00 0.0 l/m2 in 12 Std. -
Mo, 19.02. 1:00 0.0 l/m2 in 6 Std. -
So, 18.02. 19:00 0.0 l/m2 in 12 Std. -
So, 18.02. 13:00 0.0 l/m2 in 6 Std. -
Ortszeit Niederschlagsmenge Niederschlagsart
Di, 20.02. 8:30 0.0 l/m2 in 1 Std. -
Di, 20.02. 8:20 keine Meldung -
Di, 20.02. 8:10 keine Meldung -
Di, 20.02. 8:00 0.0 l/m2 in 1 Std. -
Di, 20.02. 7:50 keine Meldung -
Di, 20.02. 7:40 keine Meldung -
Di, 20.02. 7:30 0.0 l/m2 in 1 Std. -
Di, 20.02. 7:00 0.0 l/m2 in 1 Std. -
Di, 20.02. 6:30 0.0 l/m2 in 1 Std. -
Di, 20.02. 6:00 0.0 l/m2 in 1 Std. -
Di, 20.02. 5:30 0.0 l/m2 in 1 Std. -
Ortszeit Stärke Spitze Richtung
km/h Bft. km/h Grad Sektor
Di, 20.02. 7:00 0 0 7 - -
Di, 20.02. 1:00 0 0 7 - -
Mo, 19.02. 19:00 0 0 18 - -
Mo, 19.02. 13:00 11 2 19 140° SO
Mo, 19.02. 7:00 11 2 14 130° SO
Mo, 19.02. 1:00 9 2 19 150° SO
So, 18.02. 19:00 7 2 29 120° SO
So, 18.02. 13:00 22 4 29 140° SO
Ortszeit Stärke Spitze Richtung
km/h Bft. km/h Grad Sektor
Di, 20.02. 8:30 0 0 4 - -
Di, 20.02. 8:20 0 0 - 320° NW
Di, 20.02. 8:10 0 0 - - -
Di, 20.02. 8:00 0 0 4 - -
Di, 20.02. 7:50 0 0 - - -
Di, 20.02. 7:40 4 1 - 240° SW
Di, 20.02. 7:30 0 0 4 - -
Di, 20.02. 7:00 0 0 4 - -
Di, 20.02. 6:30 2 1 4 340° N
Di, 20.02. 6:00 4 1 7 340° N
Di, 20.02. 5:30 4 1 7 340° N
Ortszeit Untergrenze Bedeckung Gattung
total tief tief mittel hoch
Di, 20.02. 7:00 3600 m 8/8 8/8 - - -
Di, 20.02. 1:00 2100 m 8/8 2/8 - - -
Mo, 19.02. 19:00 2700 m 7/8 7/8 - - -
Mo, 19.02. 13:00 2700 m 8/8 7/8 - - -
Mo, 19.02. 7:00 3300 m 8/8 8/8 - - -
Mo, 19.02. 1:00 3600 m 8/8 8/8 - - -
So, 18.02. 19:00 3900 m 8/8 8/8 - - -
So, 18.02. 13:00 5700 m 0/8 0/8 - - -
Ortszeit Bedeckungsgrad in Achtel und Wolkenuntergrenze
Di, 20.02. 8:30 1(3300m)
Di, 20.02. 8:20 1(3300m)
Di, 20.02. 8:10 2(3300m)
Di, 20.02. 8:00 9 9 9
Di, 20.02. 7:50 9 9 9
Di, 20.02. 7:40 2(3900m)
Di, 20.02. 7:30 7(3900m)
Di, 20.02. 7:00 8(3600m)
Di, 20.02. 6:30 8(3600m)
Di, 20.02. 6:00 8(3600m)
Di, 20.02. 5:30 8(3600m)
Ortszeit Luftdruck NN (hPa) Tendenz (hPa in 3 Std.)
Di, 20.02. 7:00 1020 + 0,4
Di, 20.02. 1:00 1019 - 0,3
Mo, 19.02. 19:00 1020 - 0,2
Mo, 19.02. 13:00 1021 - 1,2
Mo, 19.02. 7:00 1023 - 0,9
Mo, 19.02. 1:00 1025 - 0,7
So, 18.02. 19:00 1026 - 0,8
So, 18.02. 13:00 1029 - 0,2
Ortszeit Luftdruck NN (hPa) Tendenz (hPa in 3 Std.)
Di, 20.02. 8:30 1020 + 0,4
Di, 20.02. 8:20 1020 keine Meldung
Di, 20.02. 8:10 1020 keine Meldung
Di, 20.02. 8:00 1020 + 0,5
Di, 20.02. 7:50 1020 keine Meldung
Di, 20.02. 7:40 1020 keine Meldung
Di, 20.02. 7:30 1020 + 0,4
Di, 20.02. 7:00 1020 + 0,4
Di, 20.02. 6:30 1019 + 0,3
Di, 20.02. 6:00 1019 + 0,2
Di, 20.02. 5:30 1019 + 0,1
Ortszeit Schneehöhe (cm)
Di, 20.02. 7:00 0
Di, 20.02. 1:00 0
Mo, 19.02. 19:00 0
Mo, 19.02. 13:00 0
Mo, 19.02. 7:00 1
Mo, 19.02. 1:00 1
So, 18.02. 19:00 -
So, 18.02. 13:00 -
Ortszeit Schneehöhe (cm)
Di, 20.02. 8:30 0
Di, 20.02. 8:20 0
Di, 20.02. 8:10 0
Di, 20.02. 8:00 0
Di, 20.02. 7:50 0
Di, 20.02. 7:40 0
Di, 20.02. 7:30 0
Di, 20.02. 7:00 0
Di, 20.02. 6:30 0
Di, 20.02. 6:00 0
Di, 20.02. 5:30 0
Link zu dieser Seite / Seite empfehlen

Das Wetter in ...